Terminal Aerodrome Forecast
Issued by NWS Portland, ME

Home | Current Version | Previous Version | Text Only | Print | Product List | Glossary On
Versions: 1 2 3 4 5 6 7 8 9 10 11 12 13 14 15 16 17 18
000
FTUS41 KGYX 050520
TAFCON
TAF
KCON 050520Z 0506/0606 29009KT P6SM BKN080
     FM051000 30008KT P6SM SCT050 BKN100
     FM060000 31007KT P6SM SCT100=

USA.gov is the U.S. government's official web portal to all federal, state and local government web resources and services.